Time;durP1;ratioP1;P1;durP2;ratioP2;P2;SDS_P1;SDS_P2;PMS_P1;PMS_P2;Temp;Humidity;BMP_temperature;BMP_pressure;BME280_temperature;BME280_humidity;BME280_pressure;Samples;Min_cycle;Max_cycle;Signal;HPM_P1;HPM_P2
2022/01/30 00:00:23;;;;;;;50.65;20.60;;;;;;;-0.99;100.00;98618.94;4928950;29;20530;-57
2022/01/30 00:03:08;;;;;;;54.25;21.00;;;;;;;-1.02;100.00;98617.16;4940359;28;20126;-60
2022/01/30 00:05:53;;;;;;;50.30;20.58;;;;;;;-1.12;100.00;98619.69;4963832;28;20053;-54
2022/01/30 00:08:38;;;;;;;51.47;20.30;;;;;;;-1.03;100.00;98615.44;4957351;28;20102;-64
2022/01/30 00:11:28;;;;;;;47.88;20.70;;;;;;;-1.18;100.00;98607.50;4949109;28;20050;-55
2022/01/30 00:14:16;;;;;;;56.72;21.38;;;;;;;-1.22;100.00;98612.69;4935412;29;20062;-50
2022/01/30 00:17:09;;;;;;;49.20;20.17;;;;;;;-1.32;100.00;98600.47;4920180;28;20051;-55
2022/01/30 00:20:01;;;;;;;43.65;18.40;;;;;;;-1.35;100.00;98596.13;4938296;28;20121;-53
2022/01/30 00:23:09;;;;;;;44.75;18.67;;;;;;;-1.13;100.00;98584.16;4936125;28;20053;-59
2022/01/30 00:25:55;;;;;;;49.85;19.75;;;;;;;-1.18;100.00;98596.25;4963614;28;20106;-57
2022/01/30 00:28:40;;;;;;;47.40;18.30;;;;;;;-1.17;100.00;98595.41;4949495;28;20054;-57
2022/01/30 00:31:26;;;;;;;46.42;19.10;;;;;;;-1.23;100.00;98583.22;4955657;28;20050;-58
2022/01/30 00:34:11;;;;;;;39.95;17.45;;;;;;;-1.13;100.00;98574.63;4951436;28;20057;-56
2022/01/30 00:36:56;;;;;;;46.13;18.70;;;;;;;-1.16;100.00;98574.59;4969923;28;20376;-62
2022/01/30 00:39:41;;;;;;;40.63;18.40;;;;;;;-1.22;100.00;98573.69;4924129;29;20094;-56
2022/01/30 00:42:27;;;;;;;45.90;18.23;;;;;;;-1.17;100.00;98566.78;4924737;28;20109;-53
2022/01/30 00:45:12;;;;;;;44.15;18.50;;;;;;;-1.47;100.00;98546.66;4937480;28;20050;-54
2022/01/30 00:47:58;;;;;;;46.75;18.65;;;;;;;-1.39;100.00;98568.38;4937531;28;20593;-56
2022/01/30 00:50:42;;;;;;;41.33;17.25;;;;;;;-1.24;100.00;98563.28;4954713;28;20584;-58
2022/01/30 00:53:29;;;;;;;46.95;18.92;;;;;;;-1.16;100.00;98550.31;4948805;28;20066;-62
2022/01/30 00:56:13;;;;;;;40.72;17.02;;;;;;;-1.03;100.00;98550.41;4961773;28;20514;-59
2022/01/30 00:58:58;;;;;;;37.30;16.17;;;;;;;-1.26;100.00;98544.19;4966544;28;20066;-58
2022/01/30 01:01:43;;;;;;;42.38;16.80;;;;;;;-1.26;100.00;98538.13;4948006;28;20066;-53
2022/01/30 01:04:27;;;;;;;31.23;15.07;;;;;;;-1.30;100.00;98538.97;4966940;28;20089;-59
2022/01/30 01:07:21;;;;;;;35.72;15.65;;;;;;;-1.29;100.00;98532.91;4968547;28;20530;-57
2022/01/30 01:10:19;;;;;;;32.60;15.17;;;;;;;-1.55;100.00;98516.25;4968808;28;20069;-54
2022/01/30 01:25:25;;;;;;;33.90;14.50;;;;;;;-1.39;100.00;98498.19;4915392;29;20441;-54
2022/01/30 01:28:10;;;;;;;30.13;14.18;;;;;;;-1.41;100.00;98486.94;4899722;29;20130;-57
2022/01/30 01:30:57;;;;;;;31.55;14.20;;;;;;;-1.49;100.00;98495.53;4908094;29;20083;-56
2022/01/30 01:33:58;;;;;;;32.97;14.48;;;;;;;-1.60;100.00;98499.78;4912281;29;20112;-56
2022/01/30 01:36:43;;;;;;;32.20;14.65;;;;;;;-1.78;100.00;98476.28;4897353;29;20179;-57
2022/01/30 01:39:28;;;;;;;39.72;16.65;;;;;;;-1.75;100.00;98495.34;4900505;29;20055;-55
2022/01/30 01:42:15;;;;;;;35.92;15.73;;;;;;;-1.61;100.00;98480.72;4909602;29;20427;-54
2022/01/30 01:45:00;;;;;;;35.83;15.48;;;;;;;-1.31;100.00;98490.44;4927120;29;20131;-56
2022/01/30 01:47:46;;;;;;;37.05;15.70;;;;;;;-1.73;100.00;98454.66;4926686;29;20051;-57
2022/01/30 01:50:43;;;;;;;37.35;15.65;;;;;;;-1.56;100.00;98478.16;4901840;29;20424;-60
2022/01/30 01:53:31;;;;;;;36.78;15.10;;;;;;;-1.67;100.00;98449.50;4923234;29;20078;-56
2022/01/30 01:56:17;;;;;;;37.17;15.80;;;;;;;-1.63;100.00;98477.25;4905338;29;20436;-58
2022/01/30 01:59:07;;;;;;;32.00;14.07;;;;;;;-2.01;100.00;98413.75;4939070;28;20070;-56
2022/01/30 02:02:10;;;;;;;36.95;16.00;;;;;;;-1.70;100.00;98453.81;4950822;28;20430;-56
2022/01/30 02:05:02;;;;;;;43.60;17.00;;;;;;;-1.59;100.00;98455.63;4950386;28;20054;-58
2022/01/30 02:10:58;;;;;;;32.00;14.45;;;;;;;-1.76;100.00;98451.16;4919774;28;20106;-57
2022/01/30 02:25:59;;;;;;;30.75;13.45;;;;;;;-1.71;100.00;98434.75;4955733;28;20163;-59
2022/01/30 02:28:43;;;;;;;37.95;15.43;;;;;;;-1.90;100.00;98404.31;4920662;28;20054;-58
2022/01/30 02:31:27;;;;;;;34.58;14.02;;;;;;;-1.87;100.00;98429.44;4946840;28;20102;-53
2022/01/30 02:34:13;;;;;;;30.60;13.40;;;;;;;-1.88;100.00;98438.09;4960912;28;20704;-56
2022/01/30 02:36:59;;;;;;;32.40;14.85;;;;;;;-1.61;100.00;98428.78;4939666;28;20062;-57
2022/01/30 02:39:44;;;;;;;33.03;14.57;;;;;;;-1.67;100.00;98417.44;4957447;28;20089;-60
2022/01/30 02:42:32;;;;;;;34.63;14.98;;;;;;;-1.79;100.00;98383.59;4964410;28;20090;-60
2022/01/30 02:45:19;;;;;;;34.28;14.40;;;;;;;-1.44;100.00;98411.53;4952361;28;20057;-55
2022/01/30 02:51:06;;;;;;;37.13;15.63;;;;;;;-1.80;100.00;98374.09;4952544;28;20089;-52
2022/01/30 02:54:03;;;;;;;31.33;14.60;;;;;;;-1.43;100.00;98395.06;4951673;28;20117;-56
2022/01/30 02:56:49;;;;;;;34.70;15.23;;;;;;;-1.61;100.00;98384.59;4959758;28;20049;-59
2022/01/30 02:59:34;;;;;;;40.38;16.15;;;;;;;-1.55;100.00;98381.13;4953599;28;20157;-62
2022/01/30 03:02:18;;;;;;;31.50;14.80;;;;;;;-1.44;100.00;98379.47;4925531;28;20056;-52
2022/01/30 03:05:03;;;;;;;35.90;15.93;;;;;;;-1.67;100.00;98352.50;4941507;28;20093;-60
2022/01/30 03:07:48;;;;;;;38.47;16.67;;;;;;;-1.68;100.00;98380.22;4939154;28;20588;-53
2022/01/30 03:10:32;;;;;;;34.38;15.55;;;;;;;-1.52;100.00;98374.25;4946703;28;20647;-59
2022/01/30 03:13:17;;;;;;;38.55;17.33;;;;;;;-1.39;100.00;98369.94;4934257;28;20174;-58
2022/01/30 03:16:03;;;;;;;32.50;15.52;;;;;;;-1.46;100.00;98361.25;4956376;28;20045;-50
2022/01/30 03:18:51;;;;;;;37.67;15.00;;;;;;;-1.30;100.00;98360.47;4922181;28;20154;-63
2022/01/30 03:21:37;;;;;;;40.10;15.57;;;;;;;-1.51;100.00;98355.19;4945686;29;20047;-56
2022/01/30 03:24:21;;;;;;;38.17;16.52;;;;;;;-1.55;100.00;98348.25;4950396;28;20140;-58
2022/01/30 03:27:10;;;;;;;37.00;15.68;;;;;;;-1.75;100.00;98352.47;4927130;28;20419;-61
2022/01/30 03:30:05;;;;;;;35.88;15.23;;;;;;;-1.76;100.00;98345.53;4935567;29;20127;-56
2022/01/30 03:33:19;;;;;;;32.15;15.48;;;;;;;-1.78;100.00;98338.63;4920797;29;20516;-58
2022/01/30 03:36:04;;;;;;;36.92;15.60;;;;;;;-1.84;100.00;98331.66;4910691;29;20566;-55
2022/01/30 03:38:49;;;;;;;37.25;16.38;;;;;;;-1.88;100.00;98340.28;4913311;29;20103;-62
2022/01/30 03:41:36;;;;;;;36.20;15.70;;;;;;;-1.82;100.00;98331.66;4926137;29;20054;-53
2022/01/30 03:44:24;;;;;;;37.15;15.10;;;;;;;-1.61;100.00;98334.34;4907957;29;20098;-54
2022/01/30 03:47:11;;;;;;;37.47;15.15;;;;;;;-1.61;100.00;98316.16;4927273;29;20183;-51
2022/01/30 03:49:56;;;;;;;33.53;15.00;;;;;;;-1.63;100.00;98326.56;4901056;29;20051;-56
2022/01/30 03:52:40;;;;;;;37.38;16.70;;;;;;;-1.57;100.00;98326.59;4910052;29;20086;-58
2022/01/30 03:55:25;;;;;;;33.25;14.68;;;;;;;-1.91;100.00;98308.22;4925162;29;20186;-58
2022/01/30 03:58:09;;;;;;;;;;;;;;;-1.77;100.00;98323.03;4921786;29;20087;-57
2022/01/30 04:00:57;;;;;;;;;;;;;;;-1.83;100.00;98329.91;4906558;29;20458;-57
2022/01/30 04:03:42;;;;;;;;;;;;;;;-1.84;100.00;98325.56;4918387;29;19930;-63
2022/01/30 04:06:26;;;;;;;;;;;;;;;-1.85;100.00;98322.13;4914945;29;19930;-58
2022/01/30 04:09:12;;;;;;;;;;;;;;;-1.92;100.00;98316.88;4941992;28;19928;-51
2022/01/30 04:12:08;;;;;;;;;;;;;;;-2.02;100.00;98321.16;4963559;28;19977;-59
2022/01/30 04:15:09;;;;;;;;;;;;;;;-2.06;100.00;98308.16;4929502;28;19933;-58
2022/01/30 04:18:12;;;;;;;;;;;;;;;-1.92;100.00;98311.69;4939915;29;19929;-57
2022/01/30 04:21:01;;;;;;;;;;;;;;;-1.90;100.00;98305.63;4964516;28;20305;-59
2022/01/30 04:23:55;;;;;;;;;;;;;;;-1.77;100.00;98297.06;4947356;28;19981;-59
2022/01/30 04:27:09;;;;;;;;;;;;;;;-1.81;100.00;98276.25;4941979;29;19929;-59
2022/01/30 04:30:10;;;;;;;;;;;;;;;-1.68;100.00;98289.31;4936057;28;19928;-56
2022/01/30 04:33:15;;;;;;;;;;;;;;;-1.65;100.00;98298.84;4934423;29;19929;-61
2022/01/30 04:36:24;;;;;;;;;;;;;;;-1.65;100.00;98278.94;4967072;28;20623;-59
2022/01/30 04:56:52;;;;;;;;;;;;;;;-1.65;100.00;98275.44;4856823;29;19979;-57
2022/01/30 05:06:54;;;;;;;;;;;;;;;-1.87;100.00;98264.09;4799081;29;19932;-57
2022/01/30 05:09:57;;;;;;;;;;;;;;;-2.05;100.00;98269.19;4809206;29;20334;-58
2022/01/30 05:13:02;;;;;;;;;;;;;;;-1.99;100.00;98264.03;4786906;29;20574;-58
2022/01/30 05:16:17;;;;;;;;;;;;;;;-2.01;100.00;98265.75;4755268;30;19933;-60
2022/01/30 05:19:20;;;;;;;;;;;;;;;-1.93;100.00;98274.44;4768179;30;19998;-49
2022/01/30 05:22:25;;;;;;;;;;;;;;;-2.01;100.00;98251.94;4760719;30;19933;-51
2022/01/30 05:25:19;;;;;;;;;;;;;;;-2.00;100.00;98257.13;4750616;30;20499;-50
2022/01/30 05:28:12;;;;;;;;;;;;;;;-2.00;100.00;98257.13;4816522;29;20010;-58
2022/01/30 05:31:00;;;;;;;;;;;;;;;-2.04;100.00;98252.78;4819212;29;19972;-60
2022/01/30 05:34:23;;;;;;;;;;;;;;;-2.07;100.00;98255.34;4817081;29;19954;-60
2022/01/30 05:37:27;;;;;;;;;;;;;;;-2.01;100.00;98246.72;4817072;29;20408;-54
2022/01/30 05:40:32;;;;;;;;;;;;;;;-1.77;100.00;98239.94;4872447;29;19950;-61
2022/01/30 05:43:32;;;;;;;;;;;;;;;-1.84;100.00;98234.69;4878301;29;20065;-61
2022/01/30 05:46:40;;;;;;;;;;;;;;;-1.78;100.00;98225.19;4866231;29;20005;-55
2022/01/30 05:49:51;;;;;;;;;;;;;;;-1.71;100.00;98224.34;4866441;29;19930;-52
2022/01/30 05:52:49;;;;;;;;;;;;;;;-1.65;100.00;98226.09;4914974;29;19977;-61
2022/01/30 05:55:49;;;;;;;;;;;;;;;-1.64;100.00;98213.13;4940107;28;19972;-54
2022/01/30 05:58:34;;;;;;;;;;;;;;;-1.60;100.00;98216.56;4956615;28;19929;-52
2022/01/30 06:01:57;;;;;;;;;;;;;;;-1.50;100.00;98219.19;4952355;28;20012;-57
2022/01/30 06:04:41;;;;;;;;;;;;;;;-1.55;100.00;98217.44;4965416;28;19968;-58
2022/01/30 06:07:31;;;;;;;;;;;;;;;-1.44;100.00;98219.22;4970697;28;19968;-54
2022/01/30 06:10:16;;;;;;;;;;;;;;;-1.42;100.00;98219.22;4939734;28;19933;-54
2022/01/30 06:13:00;;;;;;;;;;;;;;;-1.39;100.00;98219.22;4956072;28;19976;-60
2022/01/30 06:15:45;;;;;;;;;;;;;;;-1.29;100.00;98213.19;4967141;28;19928;-52
2022/01/30 06:18:36;;;;;;;;;;;;;;;-1.34;100.00;98212.31;4937999;28;20417;-56
2022/01/30 06:21:39;;;;;;;;;;;;;;;-1.17;100.00;98211.47;4964990;28;20024;-61
2022/01/30 06:24:58;;;;;;;;;;;;;;;-1.19;100.00;98210.59;4907199;29;19934;-58
2022/01/30 06:28:15;;;;;;;;;;;;;;;-1.13;100.00;98207.13;4852714;29;19931;-53
2022/01/30 06:31:18;;;;;;;;;;;;;;;-1.14;100.00;98202.81;4853267;29;19935;-62
2022/01/30 06:34:03;;;;;;;;;;;;;;;-1.33;100.00;98201.94;4852734;29;19980;-61
2022/01/30 06:37:06;;;;;;;;;;;;;;;-1.46;100.00;98200.16;4851435;29;19947;-56
2022/01/30 06:40:06;;;;;;;;;;;;;;;-1.44;100.00;98211.44;4842621;29;20021;-51
2022/01/30 06:43:09;;;;;;;;;;;;;;;-1.49;100.00;98192.38;4851355;29;20360;-51
2022/01/30 06:46:15;;;;;;;;;;;;;;;-1.54;100.00;98206.22;4846085;29;20460;-58
2022/01/30 06:49:17;;;;;;;;;;;;;;;-1.57;100.00;98199.28;4840535;29;20485;-51
2022/01/30 06:52:32;;;;;;;;;;;;;;;-1.41;100.00;98200.16;4853744;29;20461;-57
2022/01/30 06:55:38;;;;;;;;;;;;;;;-1.23;100.00;98198.44;4852782;29;20296;-63
2022/01/30 06:58:23;;;;;;;;;;;;;;;-1.05;100.00;98213.19;4869159;29;19930;-59
2022/01/30 07:01:26;;;;;;;;;;;;;;;-1.27;100.00;98207.13;4888577;29;20335;-59
2022/01/30 07:04:42;;;;;;;;;;;;;;;-1.32;100.00;98202.78;4946522;28;20002;-60
2022/01/30 07:07:36;;;;;;;;;;;;;;;-1.34;100.00;98189.78;4933292;28;19981;-58
2022/01/30 07:10:24;;;;;;;;;;;;;;;-1.46;100.00;98199.31;4957311;28;19944;-53
2022/01/30 07:13:11;;;;;;;;;;;;;;;-1.38;100.00;98190.63;4955435;28;20040;-62
2022/01/30 07:15:55;;;;;;;;;;;;;;;-1.44;100.00;98197.56;4961040;28;20009;-57
2022/01/30 07:18:39;;;;;;;;;;;;;;;-1.31;100.00;98194.97;4956358;28;19933;-59
2022/01/30 07:21:25;;;;;;;;;;;;;;;-1.14;100.00;98187.19;4954472;28;19928;-57
2022/01/30 07:24:10;;;;;;;;;;;;;;;-0.84;100.00;98180.25;4956425;28;19928;-55
2022/01/30 07:26:54;;;;;;;;;;;;;;;-0.92;100.00;98183.72;4953067;28;19987;-64
2022/01/30 07:29:39;;;;;;;;;;;;;;;-0.84;100.00;98176.78;4950290;28;19937;-56
2022/01/30 07:32:23;;;;;;;;;;;;;;;-0.77;100.00;98179.38;4955466;28;19972;-57
2022/01/30 07:35:08;;;;;;;;;;;;;;;-0.71;100.00;98184.56;4957777;28;19948;-60
2022/01/30 07:37:52;;;;;;;;;;;;;;;-0.81;100.00;98189.78;4967646;28;20274;-60
2022/01/30 07:40:37;;;;;;;;;;;;;;;-0.62;100.00;98192.38;4949619;29;19929;-62
2022/01/30 07:43:21;;;;;;;;;;;;;;;-0.73;100.00;98190.66;4945567;28;19929;-60
2022/01/30 07:46:27;;;;;;;;;;;;;;;-0.49;100.00;98191.47;4941440;28;20052;-58
2022/01/30 07:49:11;;;;;;;;;;;;;;;-0.70;100.00;98196.69;4967897;28;20235;-62
2022/01/30 07:51:56;;;;;;;;;;;;;;;-0.65;100.00;98186.31;4970635;28;19929;-59
2022/01/30 07:54:40;;;;;;;;;;;;;;;-0.51;100.00;98172.38;4957944;28;20011;-59
2022/01/30 07:57:24;;;;;;;;;;;;;;;-0.33;100.00;98164.53;4939076;28;19989;-55
2022/01/30 08:00:09;;;;;;;;;;;;;;;-0.58;100.00;98170.69;4933225;29;20183;-60
2022/01/30 08:03:00;;;;;;;;;;;;;;;-0.73;100.00;98165.50;4936579;28;19941;-62
2022/01/30 08:05:45;;;;;;;;;;;;;;;-0.92;100.00;98156.00;4955255;28;19993;-58
2022/01/30 08:08:29;;;;;;;;;;;;;;;-0.90;100.00;98167.25;4960559;28;19981;-61
2022/01/30 08:11:14;;;;;;;;;;;;;;;-0.84;100.00;98158.56;4950830;28;19992;-59
2022/01/30 08:13:58;;;;;;;;;;;;;;;-0.84;100.00;98158.56;4959062;28;19976;-67
2022/01/30 08:16:43;;;;;;;;;;;;;;;-0.92;100.00;98169.00;4957126;28;19977;-66
2022/01/30 08:19:28;;;;;;;;;;;;;;;-0.88;100.00;98168.13;4932862;29;19929;-64
2022/01/30 08:22:13;;;;;;;;;;;;;;;-0.79;100.00;98170.69;4943914;28;19929;-63
2022/01/30 08:24:57;;;;;;;;;;;;;;;-0.73;100.00;98169.84;4956759;28;19934;-63
2022/01/30 08:27:42;;;;;;;;;;;;;;;-0.73;100.00;98168.09;4959421;28;19969;-64
2022/01/30 08:30:27;;;;;;;;;;;;;;;-0.78;100.00;98179.38;4936461;28;19973;-64
2022/01/30 08:33:16;;;;;;;;;;;;;;;-0.90;100.00;98169.84;4932922;29;20409;-61
2022/01/30 08:36:00;;;;;;;;;;;;;;;-0.82;100.00;98172.47;4949728;28;20040;-65
2022/01/30 08:38:44;;;;;;;;;;;;;;;-0.77;100.00;98171.59;4955203;28;19929;-57
2022/01/30 08:41:29;;;;;;;;;;;;;;;-0.67;100.00;98169.84;4940088;29;20358;-61
2022/01/30 08:44:14;;;;;;;;;;;;;;;-0.66;100.00;98167.22;4956020;28;20321;-65
2022/01/30 08:46:59;;;;;;;;;;;;;;;-0.74;100.00;98168.94;4949058;28;19932;-58
2022/01/30 08:49:44;;;;;;;;;;;;;;;-0.99;100.00;98172.47;4945332;28;20397;-61
2022/01/30 08:52:29;;;;;;;;;;;;;;;-1.09;100.00;98164.66;4934684;28;20361;-62
2022/01/30 08:55:15;;;;;;;;;;;;;;;-1.18;100.00;98157.72;4967945;28;19929;-60
2022/01/30 08:58:07;;;;;;;;;;;;;;;-1.39;100.00;98178.50;4970671;28;20350;-63
2022/01/30 09:00:52;;;;;;;;;;;;;;;-1.41;100.00;98150.78;4955838;28;20342;-59
2022/01/30 09:03:37;;;;;;;;;;;;;;;-1.58;100.00;98150.75;4926988;28;20338;-62
2022/01/30 09:06:21;;;;;;;;;;;;;;;-1.54;100.00;98165.50;4953568;28;20382;-60
2022/01/30 09:09:05;;;;;;;;;;;;;;;-1.55;100.00;98165.47;4968613;28;19950;-62
2022/01/30 09:11:50;;;;;;;;;;;;;;;-1.62;100.00;98169.81;4947381;29;20009;-57
2022/01/30 09:14:38;;;;;;;;;;;;;;;-1.52;100.00;98163.78;4923926;28;20016;-59
2022/01/30 09:17:24;;;;;;;;;;;;;;;-1.53;100.00;98155.97;4954008;28;19987;-65
2022/01/30 09:20:09;;;;;;;;;;;;;;;-1.24;100.00;98155.13;4950830;28;19984;-63
2022/01/30 09:22:54;;;;;;;;;;;;;;;-1.21;100.00;98157.75;4956257;28;20586;-61
2022/01/30 09:25:38;;;;;;;;;;;;;;;-1.29;100.00;98153.41;4934074;29;19928;-65
2022/01/30 09:28:23;;;;;;;;;;;;;;;-1.20;100.00;98166.38;4947453;28;20473;-67
2022/01/30 09:31:07;;;;;;;;;;;;;;;-1.32;100.00;98174.19;4953602;28;19975;-58
2022/01/30 09:33:52;;;;;;;;;;;;;;;-1.42;100.00;98165.50;4949229;28;19949;-58
2022/01/30 09:36:37;;;;;;;;;;;;;;;-1.56;100.00;98162.03;4954659;28;20008;-64
2022/01/30 09:39:22;;;;;;;;;;;;;;;-1.51;100.00;98156.81;4955274;28;19969;-64
2022/01/30 09:42:07;;;;;;;;;;;;;;;-1.60;100.00;98165.50;4932923;28;19929;-63
2022/01/30 09:44:53;;;;;;;;;;;;;;;-1.56;100.00;98161.16;4938315;28;20084;-57
2022/01/30 09:48:38;;;;;;;1.67;0.80;;;;;;;-1.33;100.00;98139.53;5035100;28;20571;-62
2022/01/30 09:51:23;;;;;;;3.70;0.70;;;;;;;-1.31;100.00;98106.59;5002821;28;20057;-62
2022/01/30 09:54:08;;;;;;;1.63;0.98;;;;;;;-0.97;100.00;98125.66;5030787;28;20053;-63
2022/01/30 09:56:52;;;;;;;1.80;0.93;;;;;;;-0.80;100.00;98140.38;5026280;28;20118;-62
2022/01/30 09:59:37;;;;;;;1.42;0.98;;;;;;;-0.59;100.00;98119.50;5034076;28;20500;-59
2022/01/30 10:02:25;;;;;;;2.15;1.00;;;;;;;-0.72;100.00;98116.91;5024078;28;20092;-55
2022/01/30 10:05:13;;;;;;;1.90;1.10;;;;;;;-0.56;100.00;98118.63;5018186;28;20080;-66
2022/01/30 10:07:58;;;;;;;3.13;1.00;;;;;;;-0.41;100.00;98110.75;5039531;28;20076;-61
2022/01/30 10:11:00;;;;;;;1.90;1.00;;;;;;;-0.09;100.00;98111.50;5040387;28;20048;-64
2022/01/30 10:13:45;;;;;;;3.03;1.20;;;;;;;0.13;100.00;98101.81;5037748;28;20048;-62
2022/01/30 10:16:46;;;;;;;1.63;1.23;;;;;;;0.43;100.00;98096.44;5030598;28;20088;-60
2022/01/30 10:19:31;;;;;;;3.03;1.60;;;;;;;0.68;100.00;98101.44;5030216;28;20044;-55
2022/01/30 10:22:15;;;;;;;2.38;1.70;;;;;;;0.94;100.00;98080.38;5037667;28;20056;-61
2022/01/30 10:25:00;;;;;;;3.63;2.20;;;;;;;1.37;100.00;98092.06;5028459;28;20056;-62
2022/01/30 10:27:45;;;;;;;5.25;2.80;;;;;;;3.38;100.00;98087.34;5028924;28;20067;-55
2022/01/30 10:30:43;;;;;;;5.47;2.60;;;;;;;5.04;100.00;98058.25;5025479;28;20048;-59
2022/01/30 10:33:39;;;;;;;5.10;2.65;;;;;;;6.66;100.00;98084.28;5043224;28;20091;-59
2022/01/30 10:36:32;;;;;;;3.55;2.50;;;;;;;6.37;100.00;98055.38;5027121;28;20052;-57
2022/01/30 10:39:22;;;;;;;5.22;2.70;;;;;;;7.11;100.00;98046.78;5027950;28;20076;-62
2022/01/30 10:42:33;;;;;;;4.20;2.50;;;;;;;8.05;100.00;98071.53;5029946;28;20075;-62
2022/01/30 10:45:29;;;;;;;6.95;2.40;;;;;;;7.61;100.00;98068.75;5040681;28;20147;-69
2022/01/30 10:48:23;;;;;;;2.83;1.75;;;;;;;6.91;98.87;98069.41;5031468;28;20350;-65
2022/01/30 10:51:12;;;;;;;2.33;1.60;;;;;;;7.20;97.32;98058.78;5025028;28;20083;-64
2022/01/30 10:53:59;;;;;;;2.95;1.67;;;;;;;7.97;94.08;98068.31;5036860;28;20227;-60
2022/01/30 10:56:44;;;;;;;2.33;1.48;;;;;;;7.61;89.74;98060.84;5035890;28;20564;-68
2022/01/30 10:59:29;;;;;;;2.35;1.48;;;;;;;7.58;90.85;98045.13;5020212;28;20052;-65
2022/01/30 11:02:23;;;;;;;;;;;;;;;7.08;100.00;98046.88;5016375;28;20156;-59
2022/01/30 11:05:12;;;;;;;2.60;1.67;;;;;;;6.06;100.00;98051.94;5011657;28;20114;-61
2022/01/30 11:07:57;;;;;;;3.03;1.83;;;;;;;5.77;100.00;98046.63;5021301;28;20152;-63
2022/01/30 11:10:44;;;;;;;2.50;1.70;;;;;;;5.33;100.00;98024.19;5011301;28;20934;-58
2022/01/30 11:13:44;;;;;;;3.17;2.20;;;;;;;5.25;100.00;98031.44;5016118;28;20052;-65
2022/01/30 11:19:37;;;;;;;3.40;2.33;;;;;;;4.60;100.00;98021.75;5020590;28;20053;-55
2022/01/30 11:22:24;;;;;;;3.55;1.70;;;;;;;4.28;100.00;98014.63;4999538;28;20045;-61
2022/01/30 11:25:12;;;;;;;4.28;2.08;;;;;;;4.15;100.00;98010.56;5018221;28;20064;-58
2022/01/30 11:28:00;;;;;;;3.20;1.90;;;;;;;4.34;100.00;98016.25;5018305;28;20844;-62
2022/01/30 11:30:46;;;;;;;2.58;1.80;;;;;;;4.23;100.00;98000.78;5019741;28;20048;-59
2022/01/30 11:33:32;;;;;;;2.67;1.90;;;;;;;4.08;100.00;98008.97;5021028;28;20061;-63
2022/01/30 11:36:18;;;;;;;3.13;2.00;;;;;;;4.32;100.00;98002.34;5013895;28;20052;-63
2022/01/30 11:39:05;;;;;;;2.72;1.85;;;;;;;4.31;100.00;98000.59;5020902;28;20068;-61
2022/01/30 11:42:12;;;;;;;3.95;2.50;;;;;;;4.23;100.00;98002.53;5008640;28;20137;-60
2022/01/30 11:45:00;;;;;;;2.85;1.95;;;;;;;3.66;100.00;97986.34;5022908;28;20531;-56
2022/01/30 11:47:51;;;;;;;2.53;1.70;;;;;;;3.46;100.00;97985.03;5025158;28;20506;-62
2022/01/30 11:50:36;;;;;;;2.40;1.80;;;;;;;3.44;100.00;97985.06;5027317;28;20221;-57
2022/01/30 11:53:28;;;;;;;3.88;2.40;;;;;;;3.32;100.00;97985.31;5020150;28;20182;-57
2022/01/30 11:56:31;;;;;;;3.55;2.10;;;;;;;3.21;100.00;97983.81;5009841;28;20061;-63
2022/01/30 11:59:38;;;;;;;4.68;2.40;;;;;;;2.83;100.00;97965.34;5021936;28;20099;-62
2022/01/30 12:02:35;;;;;;;4.75;2.50;;;;;;;2.51;100.00;97983.34;5002733;28;20108;-58
2022/01/30 12:05:35;;;;;;;4.85;2.60;;;;;;;2.47;100.00;97963.38;5027138;28;20057;-61
2022/01/30 12:08:42;;;;;;;5.47;2.65;;;;;;;2.51;100.00;97980.72;5018386;28;20131;-59
2022/01/30 12:11:37;;;;;;;5.40;2.75;;;;;;;2.36;100.00;97986.22;5009499;28;20123;-57
2022/01/30 12:14:21;;;;;;;3.88;2.33;;;;;;;2.27;100.00;97987.25;5024527;28;20060;-61
2022/01/30 12:17:16;;;;;;;5.15;2.83;;;;;;;2.29;100.00;97980.22;5029107;28;20579;-58
2022/01/30 12:20:05;;;;;;;4.07;2.20;;;;;;;2.28;100.00;97965.44;5026841;28;20045;-56
2022/01/30 12:22:51;;;;;;;5.57;2.13;;;;;;;2.31;100.00;97973.22;5021075;28;20052;-56
2022/01/30 12:25:39;;;;;;;3.38;2.20;;;;;;;2.24;100.00;97975.94;5016577;28;20076;-58
2022/01/30 12:28:43;;;;;;;3.20;1.80;;;;;;;2.32;100.00;97971.47;5009432;28;20052;-51
2022/01/30 12:31:34;;;;;;;3.28;1.83;;;;;;;2.15;100.00;97976.09;5013076;28;20048;-58
2022/01/30 12:34:19;;;;;;;3.45;1.80;;;;;;;1.99;100.00;97975.50;5016829;28;20119;-58
2022/01/30 12:37:03;;;;;;;2.58;1.90;;;;;;;1.91;100.00;97969.50;5022991;28;20056;-60
2022/01/30 12:39:48;;;;;;;3.22;2.10;;;;;;;2.05;100.00;97974.53;5026841;28;20631;-61
2022/01/30 12:42:34;;;;;;;3.65;1.98;;;;;;;1.58;100.00;97928.19;4996344;28;20052;-60
2022/01/30 12:45:19;;;;;;;4.50;2.08;;;;;;;1.60;100.00;97938.63;5026956;28;20065;-60
2022/01/30 12:48:08;;;;;;;3.63;2.33;;;;;;;1.53;100.00;97966.56;5028732;28;20096;-56
2022/01/30 12:50:58;;;;;;;4.03;2.00;;;;;;;1.49;100.00;97959.66;5026051;28;20428;-59
2022/01/30 12:53:43;;;;;;;4.45;2.30;;;;;;;1.54;100.00;97954.38;5030109;28;20052;-57
2022/01/30 12:56:28;;;;;;;4.57;2.80;;;;;;;1.62;100.00;97965.59;5044694;28;20047;-58
2022/01/30 12:59:15;;;;;;;4.57;2.40;;;;;;;1.52;100.00;97948.31;5025862;28;20049;-60
2022/01/30 13:02:12;;;;;;;3.97;2.45;;;;;;;1.51;100.00;97957.91;5040818;28;20052;-61
2022/01/30 13:05:02;;;;;;;2.58;1.90;;;;;;;1.26;100.00;97959.06;5029686;28;20106;-59
2022/01/30 13:07:55;;;;;;;3.42;2.08;;;;;;;1.38;100.00;97955.47;5025244;28;20045;-53
2022/01/30 13:10:40;;;;;;;3.78;2.45;;;;;;;1.36;100.00;97952.00;5043003;28;20060;-57
2022/01/30 13:13:24;;;;;;;3.77;2.20;;;;;;;1.18;100.00;97947.88;5042507;28;20055;-56
2022/01/30 13:16:11;;;;;;;4.22;2.05;;;;;;;1.16;100.00;97943.56;5011070;28;20298;-57
2022/01/30 13:18:56;;;;;;;4.88;2.30;;;;;;;1.37;100.00;97945.88;5039884;28;20174;-64
2022/01/30 13:21:46;;;;;;;2.92;1.90;;;;;;;1.24;100.00;97942.59;5027312;28;20052;-63
2022/01/30 13:24:34;;;;;;;4.05;2.08;;;;;;;1.22;100.00;97946.94;5016861;28;20098;-59
2022/01/30 13:27:19;;;;;;;3.55;2.20;;;;;;;1.04;100.00;97941.09;4995035;28;20091;-59
2022/01/30 13:30:06;;;;;;;3.78;2.50;;;;;;;1.07;100.00;97947.13;5035296;28;20052;-62
2022/01/30 13:32:52;;;;;;;4.85;2.92;;;;;;;1.04;100.00;97947.19;5038426;28;20075;-57
2022/01/30 13:35:37;;;;;;;4.22;2.88;;;;;;;1.03;100.00;97948.06;5016650;28;20048;-55
2022/01/30 13:38:25;;;;;;;4.75;2.85;;;;;;;1.04;100.00;97941.97;5034346;28;20078;-56
2022/01/30 13:41:28;;;;;;;4.53;2.83;;;;;;;1.05;100.00;97950.66;5011343;28;20075;-63
2022/01/30 13:44:26;;;;;;;5.22;2.50;;;;;;;0.96;100.00;97953.38;5033954;28;20110;-59
2022/01/30 13:47:19;;;;;;;4.05;2.58;;;;;;;0.86;100.00;97951.75;5016674;28;20067;-55
2022/01/30 13:50:18;;;;;;;5.30;3.00;;;;;;;0.79;100.00;97956.16;5009779;28;20052;-57
2022/01/30 13:53:07;;;;;;;4.15;2.80;;;;;;;0.52;100.00;97940.81;5040516;28;20055;-59
2022/01/30 13:55:52;;;;;;;4.65;3.00;;;;;;;0.50;100.00;97947.78;4997422;28;20045;-62
2022/01/30 13:58:37;;;;;;;3.33;2.33;;;;;;;0.51;100.00;97938.22;5002419;28;20187;-60
2022/01/30 14:01:30;;;;;;;3.58;2.47;;;;;;;0.53;100.00;97945.16;5026001;28;20532;-62
2022/01/30 14:04:25;;;;;;;4.30;2.83;;;;;;;0.55;100.00;97945.13;5042530;28;20462;-54
2022/01/30 14:07:24;;;;;;;4.47;2.90;;;;;;;0.65;100.00;97958.06;5044190;28;20051;-59
2022/01/30 14:10:08;;;;;;;4.80;2.60;;;;;;;0.23;100.00;97957.59;5023932;28;20287;-64
2022/01/30 14:12:54;;;;;;;3.72;2.70;;;;;;;0.23;100.00;97953.22;5031491;28;20409;-58
2022/01/30 14:15:40;;;;;;;6.07;3.30;;;;;;;0.31;100.00;97964.44;5034028;28;20063;-61
2022/01/30 14:18:27;;;;;;;4.75;2.80;;;;;;;0.24;100.00;97968.00;5018564;28;20387;-58
2022/01/30 14:21:17;;;;;;;4.68;2.75;;;;;;;0.30;100.00;97967.94;5003971;28;20052;-59
2022/01/30 14:24:18;;;;;;;4.38;2.67;;;;;;;0.50;100.00;97960.81;5041927;28;20048;-56
2022/01/30 14:27:08;;;;;;;6.15;3.15;;;;;;;0.54;100.00;97964.22;5036784;28;20060;-63
2022/01/30 14:29:56;;;;;;;4.82;3.22;;;;;;;0.40;100.00;97961.78;5033776;28;20531;-57
2022/01/30 14:32:42;;;;;;;4.60;3.13;;;;;;;0.37;100.00;97972.22;4998676;28;20049;-62
2022/01/30 14:35:34;;;;;;;4.88;3.40;;;;;;;0.13;100.00;97946.38;5032804;28;20052;-59
2022/01/30 14:38:19;;;;;;;6.53;3.78;;;;;;;0.47;100.00;97978.22;5035173;28;20203;-59
2022/01/30 14:41:27;;;;;;;6.15;3.72;;;;;;;0.66;100.00;97974.56;5029046;28;20052;-58